createdAt,value
2018-07-23T00:00:10.056Z,2.90
2018-07-23T00:02:43.164Z,2.60
2018-07-23T00:05:12.272Z,3.10
2018-07-23T00:07:45.471Z,3.07
2018-07-23T00:10:15.265Z,3.60
2018-07-23T00:12:48.409Z,2.80
2018-07-23T00:15:18.693Z,3.40
2018-07-23T00:17:52.611Z,3.37
2018-07-23T00:20:22.089Z,3.13
2018-07-23T00:22:53.876Z,2.83
2018-07-23T00:25:23.641Z,3.37
2018-07-23T00:27:56.081Z,3.20
2018-07-23T00:30:25.052Z,3.40
2018-07-23T00:33:02.122Z,3.20
2018-07-23T00:35:31.625Z,4.37
2018-07-23T00:38:00.642Z,3.57
2018-07-23T00:40:31.166Z,3.87
2018-07-23T00:43:03.856Z,3.93
2018-07-23T00:45:32.775Z,3.30
2018-07-23T00:48:09.640Z,4.07
2018-07-23T00:50:39.208Z,3.53
2018-07-23T00:53:10.141Z,3.33
2018-07-23T00:58:15.748Z,3.57
2018-07-23T01:00:45.632Z,4.07
2018-07-23T01:03:15.983Z,3.20
2018-07-23T01:05:45.585Z,4.00
2018-07-23T01:08:18.321Z,4.10
2018-07-23T01:10:47.094Z,3.87
2018-07-23T01:13:20.548Z,3.77
2018-07-23T01:15:49.860Z,3.40
2018-07-23T01:18:26.520Z,3.90
2018-07-23T01:20:55.608Z,3.37
2018-07-23T01:25:54.407Z,4.30
2018-07-23T01:28:26.091Z,3.90
2018-07-23T01:30:55.226Z,4.37
2018-07-23T01:33:32.117Z,4.20
2018-07-23T01:36:01.630Z,4.20
2018-07-23T01:38:31.653Z,3.13
2018-07-23T01:41:00.602Z,4.20
2018-07-23T01:43:34.023Z,3.93
2018-07-23T01:46:02.772Z,4.00
2018-07-23T01:48:38.749Z,3.53
2018-07-23T01:51:08.249Z,3.53
2018-07-23T01:53:40.848Z,3.63
2018-07-23T01:56:10.099Z,4.10
2018-07-23T01:58:43.848Z,3.50
2018-07-23T02:01:13.001Z,4.17
2018-07-23T02:03:45.697Z,3.80
2018-07-23T02:06:14.846Z,3.67
2018-07-23T02:08:51.407Z,4.90
2018-07-23T02:11:21.677Z,5.00
2018-07-23T02:13:50.619Z,5.20
2018-07-23T02:16:19.904Z,4.90
2018-07-23T02:18:53.106Z,4.27
2018-07-23T02:21:22.689Z,4.20
2018-07-23T02:23:55.776Z,3.23
2018-07-23T02:26:25.172Z,4.23
2018-07-23T02:28:58.231Z,3.93
2018-07-23T02:31:27.393Z,3.77
2018-07-23T02:34:04.721Z,3.77
2018-07-23T02:36:33.640Z,4.07
2018-07-23T02:39:08.664Z,4.37
2018-07-23T02:41:37.964Z,3.73
2018-07-23T02:44:08.855Z,3.70
2018-07-23T02:46:37.903Z,3.90
2018-07-23T02:49:14.503Z,3.47
2018-07-23T02:51:43.500Z,3.80
2018-07-23T02:54:13.524Z,3.53
2018-07-23T02:56:42.813Z,3.70
2018-07-23T02:59:19.169Z,4.30
2018-07-23T03:01:48.457Z,3.60
2018-07-23T03:04:18.445Z,4.13
2018-07-23T03:06:47.218Z,3.83
2018-07-23T03:09:20.569Z,3.60
2018-07-23T03:11:50.290Z,4.70
2018-07-23T03:14:23.411Z,4.43
2018-07-23T03:16:52.291Z,5.33
2018-07-23T03:19:28.609Z,4.67
2018-07-23T03:21:58.508Z,5.13
2018-07-23T03:24:27.926Z,5.20
2018-07-23T03:26:57.360Z,4.83
2018-07-23T03:29:34.540Z,4.50
2018-07-23T03:32:03.744Z,6.27
2018-07-23T03:34:34.643Z,6.70
2018-07-23T03:37:04.044Z,5.90
2018-07-23T03:39:36.707Z,5.90
2018-07-23T03:42:05.810Z,6.30
2018-07-23T03:44:41.920Z,5.97
2018-07-23T03:47:11.033Z,5.33
2018-07-23T03:49:40.625Z,5.83
2018-07-23T03:52:09.445Z,5.93
2018-07-23T03:54:46.597Z,5.70
2018-07-23T03:57:16.560Z,5.50
2018-07-23T03:59:47.105Z,5.50
2018-07-23T04:02:16.157Z,5.13
2018-07-23T04:04:49.044Z,5.43
2018-07-23T04:07:17.822Z,5.17
2018-07-23T04:09:53.770Z,4.83
2018-07-23T04:12:23.499Z,5.40
2018-07-23T04:14:55.060Z,6.63
2018-07-23T04:17:24.325Z,5.37
2018-07-23T04:19:58.681Z,6.00
2018-07-23T04:22:28.195Z,5.97
2018-07-23T04:25:00.961Z,6.53
2018-07-23T04:27:29.983Z,7.00
2018-07-23T04:30:06.792Z,6.87
2018-07-23T04:32:36.113Z,6.00
2018-07-23T04:35:06.734Z,6.30
2018-07-23T04:37:35.980Z,5.93
2018-07-23T04:40:09.118Z,7.07
2018-07-23T04:42:38.168Z,6.30
2018-07-23T04:45:15.146Z,6.47
2018-07-23T04:47:43.851Z,5.93
2018-07-23T04:50:14.981Z,6.53
2018-07-23T04:52:44.235Z,6.03
2018-07-23T04:55:20.717Z,6.83
2018-07-23T04:57:49.968Z,7.10
2018-07-23T05:00:21.117Z,7.40
2018-07-23T05:02:50.675Z,6.20
2018-07-23T05:05:27.318Z,7.83
2018-07-23T05:07:56.559Z,7.17
2018-07-23T05:10:28.227Z,6.90
2018-07-23T05:12:57.736Z,7.17
2018-07-23T05:15:27.189Z,7.33
2018-07-23T05:17:56.259Z,6.60
2018-07-23T05:20:32.278Z,7.63
2018-07-23T05:23:01.719Z,6.67
2018-07-23T05:25:33.158Z,7.00
2018-07-23T05:28:02.337Z,7.40
2018-07-23T05:30:35.402Z,6.80
2018-07-23T05:33:05.006Z,7.87
2018-07-23T05:35:38.808Z,7.43
2018-07-23T05:38:08.872Z,6.93
2018-07-23T05:40:46.454Z,6.57
2018-07-23T05:43:15.385Z,7.20
2018-07-23T05:45:44.564Z,7.90
2018-07-23T05:48:13.661Z,7.27
2018-07-23T05:50:45.737Z,7.77
2018-07-23T05:53:16.745Z,8.20
2018-07-23T05:55:49.200Z,7.83
2018-07-23T05:58:18.660Z,7.80
2018-07-23T06:00:51.236Z,9.37
2018-07-23T06:03:20.062Z,8.07
2018-07-23T06:05:54.236Z,8.33
2018-07-23T06:08:24.114Z,8.87
2018-07-23T06:11:00.354Z,7.23
2018-07-23T06:13:30.160Z,8.43
2018-07-23T06:15:59.540Z,8.87
2018-07-23T06:18:28.679Z,8.20
2018-07-23T06:21:05.601Z,8.30
2018-07-23T06:26:14.516Z,8.87
2018-07-23T06:28:43.624Z,8.97
2018-07-23T06:31:13.303Z,8.07
2018-07-23T06:33:42.579Z,8.27
2018-07-23T06:36:13.592Z,7.97
2018-07-23T06:38:42.456Z,7.87
2018-07-23T06:41:20.171Z,8.43
2018-07-23T06:43:49.550Z,6.33
2018-07-23T06:46:20.110Z,6.77
2018-07-23T06:48:49.561Z,7.30
2018-07-23T06:51:19.893Z,8.20
2018-07-23T06:53:49.497Z,8.60
2018-07-23T06:56:24.590Z,7.67
2018-07-23T06:58:55.117Z,7.50
2018-07-23T07:01:25.200Z,8.43
2018-07-23T07:03:55.429Z,8.60
2018-07-23T07:06:32.729Z,7.90
2018-07-23T07:09:02.195Z,9.00
2018-07-23T07:11:32.935Z,8.33
2018-07-23T07:14:02.677Z,7.77
2018-07-23T07:16:34.169Z,8.33
2018-07-23T07:19:03.998Z,7.03
2018-07-23T07:21:35.428Z,7.77
2018-07-23T07:24:06.924Z,7.30
2018-07-23T07:26:38.329Z,8.07
2018-07-23T07:29:07.089Z,7.03
2018-07-23T07:31:44.657Z,8.13
2018-07-23T07:34:18.990Z,6.57
2018-07-23T07:36:48.560Z,6.90
2018-07-23T07:39:18.059Z,6.27
2018-07-23T07:41:48.086Z,6.73
2018-07-23T07:44:18.100Z,6.67
2018-07-23T07:46:51.166Z,6.90
2018-07-23T07:49:20.354Z,7.73
2018-07-23T07:51:54.304Z,6.93
2018-07-23T07:54:23.768Z,7.70
2018-07-23T07:56:54.357Z,7.10
2018-07-23T07:59:24.773Z,5.90
2018-07-23T08:01:58.650Z,6.40
2018-07-23T08:04:28.104Z,7.27
2018-07-23T08:06:59.571Z,7.30
2018-07-23T08:09:30.265Z,7.73
2018-07-23T08:12:03.073Z,7.03
2018-07-23T08:14:35.852Z,7.03
2018-07-23T08:17:06.665Z,6.43
2018-07-23T08:19:36.437Z,7.43
2018-07-23T08:22:12.373Z,7.17
2018-07-23T08:24:42.177Z,6.87
2018-07-23T08:27:30.070Z,7.27
2018-07-23T08:30:00.959Z,8.07
2018-07-23T08:32:31.676Z,8.33
2018-07-23T08:35:03.704Z,8.40
2018-07-23T08:37:39.180Z,8.60
2018-07-23T08:42:47.090Z,8.00
2018-07-23T08:45:23.405Z,7.50
2018-07-23T08:47:54.709Z,6.93
2018-07-23T08:50:28.383Z,6.87
2018-07-23T08:53:03.167Z,8.60
2018-07-23T08:55:34.885Z,9.03
2018-07-23T08:58:05.606Z,8.07
2018-07-23T09:00:38.764Z,7.97
2018-07-23T09:03:08.087Z,8.27
2018-07-23T09:05:38.659Z,7.67
2018-07-23T09:08:08.556Z,7.53
2018-07-23T09:10:39.839Z,7.97
2018-07-23T09:13:11.329Z,8.27
2018-07-23T09:15:48.168Z,6.37
2018-07-23T09:18:24.227Z,7.97
2018-07-23T09:23:45.252Z,5.27
2018-07-23T09:26:15.682Z,6.47
2018-07-23T09:28:50.323Z,5.77
2018-07-23T09:31:19.615Z,6.03
2018-07-23T09:33:50.708Z,6.57
2018-07-23T09:36:21.184Z,4.53
2018-07-23T09:38:51.883Z,5.23
2018-07-23T09:41:21.733Z,5.40
2018-07-23T09:43:51.182Z,4.83
2018-07-23T09:46:21.198Z,4.83
2018-07-23T09:48:54.130Z,5.27
2018-07-23T09:51:23.734Z,5.23
2018-07-23T09:53:56.917Z,6.63
2018-07-23T09:56:26.676Z,4.77
2018-07-23T09:59:00.273Z,4.60
2018-07-23T10:01:30.124Z,4.80
2018-07-23T10:04:09.276Z,5.70
2018-07-23T10:06:39.832Z,5.30
2018-07-23T10:09:12.198Z,5.93
2018-07-23T10:14:14.146Z,5.83
2018-07-23T10:16:44.164Z,5.80
2018-07-23T10:19:23.659Z,5.57
2018-07-23T10:21:53.185Z,5.93
2018-07-23T10:24:23.272Z,5.40
2018-07-23T10:26:53.078Z,4.97
2018-07-23T10:29:29.902Z,5.37
2018-07-23T10:32:03.787Z,5.20
2018-07-23T10:34:59.594Z,4.93
2018-07-23T10:37:33.498Z,4.10
2018-07-23T10:46:46.206Z,4.87
2018-07-23T10:52:03.612Z,5.57
2018-07-23T10:54:47.375Z,6.37
2018-07-23T10:57:19.241Z,5.87
2018-07-23T10:59:58.848Z,5.57
2018-07-23T11:02:35.639Z,7.73
2018-07-23T11:05:09.465Z,7.33
2018-07-23T11:07:41.471Z,5.50
2018-07-23T11:10:11.760Z,5.00
2018-07-23T11:12:41.159Z,5.70
2018-07-23T11:15:10.621Z,6.13
2018-07-23T11:17:41.965Z,5.70
2018-07-23T11:20:13.949Z,6.93
2018-07-23T11:22:46.253Z,6.57
2018-07-23T11:25:38.596Z,5.90
2018-07-23T11:27:47.049Z,5.37
2018-07-23T11:30:16.528Z,5.40
2018-07-23T11:32:49.171Z,5.27
2018-07-23T11:35:19.500Z,6.57
2018-07-23T11:37:53.542Z,5.43
2018-07-23T11:40:23.724Z,7.03
2018-07-23T11:42:54.690Z,4.97
2018-07-23T11:45:25.850Z,5.70
2018-07-23T11:47:58.476Z,5.03
2018-07-23T11:50:32.179Z,5.33
2018-07-23T11:53:04.815Z,5.77
2018-07-23T11:55:34.426Z,6.93
2018-07-23T11:58:04.385Z,6.37
2018-07-23T12:00:33.747Z,6.13
2018-07-23T12:03:07.173Z,4.53
2018-07-23T12:05:36.602Z,4.50
2018-07-23T12:08:09.034Z,5.37
2018-07-23T12:10:39.097Z,4.00
2018-07-23T12:13:21.163Z,3.23
2018-07-23T12:15:50.586Z,4.03
2018-07-23T12:18:19.522Z,4.00
2018-07-23T12:20:48.866Z,3.20
2018-07-23T12:23:20.370Z,4.33
2018-07-23T12:25:50.341Z,3.20
2018-07-23T12:28:20.736Z,2.93
2018-07-23T12:30:51.038Z,3.00
2018-07-23T12:33:22.062Z,3.13
2018-07-23T12:35:55.242Z,3.43
2018-07-23T12:38:28.410Z,3.40
2018-07-23T12:41:00.418Z,2.67
2018-07-23T12:43:33.308Z,3.33
2018-07-23T12:46:03.189Z,2.97
2018-07-23T12:48:33.417Z,3.07
2018-07-23T12:51:02.471Z,2.73
2018-07-23T12:53:43.162Z,2.73
2018-07-23T12:56:12.414Z,2.50
2018-07-23T12:58:43.307Z,3.40
2018-07-23T13:01:13.150Z,3.03
2018-07-23T13:03:42.486Z,3.20
2018-07-23T13:06:11.687Z,2.87
2018-07-23T13:08:41.136Z,3.03
2018-07-23T13:11:10.287Z,3.03
2018-07-23T13:13:44.269Z,3.10
2018-07-23T13:16:13.672Z,2.90
2018-07-23T13:18:49.701Z,3.00
2018-07-23T13:21:19.559Z,3.00
2018-07-23T13:23:50.249Z,2.67
2018-07-23T13:28:52.072Z,2.70
2018-07-23T13:31:23.225Z,3.03
2018-07-23T13:33:56.489Z,3.87
2018-07-23T13:36:31.009Z,3.27
2018-07-23T13:39:00.802Z,3.07
2018-07-23T13:41:29.808Z,3.10
2018-07-23T13:44:01.133Z,3.07
2018-07-23T13:46:30.451Z,3.30
2018-07-23T13:52:18.352Z,3.67
2018-07-23T13:54:47.518Z,3.67
2018-07-23T13:57:20.810Z,3.13
2018-07-23T13:59:50.159Z,3.30
2018-07-23T14:02:20.828Z,3.57
2018-07-23T14:04:50.507Z,3.63
2018-07-23T14:07:20.653Z,3.40
2018-07-23T14:09:51.189Z,3.57
2018-07-23T14:12:20.013Z,3.27
2018-07-23T14:14:50.788Z,3.70
2018-07-23T14:17:21.343Z,3.53
2018-07-23T14:19:50.803Z,3.77
2018-07-23T14:22:29.239Z,3.87
2018-07-23T14:24:59.989Z,3.73
2018-07-23T14:27:29.687Z,4.10
2018-07-23T14:29:59.121Z,3.57
2018-07-23T14:32:35.208Z,3.07
2018-07-23T14:35:05.436Z,3.53
2018-07-23T14:37:35.474Z,4.10
2018-07-23T14:40:05.376Z,4.17
2018-07-23T14:42:35.145Z,3.30
2018-07-23T14:45:06.226Z,4.20
2018-07-23T14:47:35.908Z,4.50
2018-07-23T14:50:05.630Z,4.10
2018-07-23T14:52:39.644Z,5.60
2018-07-23T14:55:09.343Z,3.97
2018-07-23T14:57:39.536Z,3.60
2018-07-23T15:00:10.454Z,3.67
2018-07-23T15:02:46.442Z,4.53
2018-07-23T15:05:18.014Z,4.53
2018-07-23T15:07:50.720Z,3.63
2018-07-23T15:10:20.620Z,4.00
2018-07-23T15:15:52.057Z,4.07
2018-07-23T15:18:22.659Z,3.57
2018-07-23T15:20:55.652Z,3.60
2018-07-23T15:23:25.735Z,3.77
2018-07-23T15:25:57.597Z,3.17
2018-07-23T15:28:27.231Z,3.47
2018-07-23T15:30:59.170Z,3.40
2018-07-23T15:33:29.179Z,3.30
2018-07-23T15:36:01.609Z,3.33
2018-07-23T15:38:36.224Z,3.67
2018-07-23T15:41:09.412Z,3.13
2018-07-23T15:43:39.178Z,3.50
2018-07-23T15:46:08.514Z,3.27
2018-07-23T15:48:40.897Z,5.07
2018-07-23T15:51:13.170Z,3.50
2018-07-23T15:53:46.709Z,3.13
2018-07-23T15:56:19.215Z,3.93
2018-07-23T15:58:48.965Z,3.10
2018-07-23T16:01:21.820Z,3.53
2018-07-23T16:06:26.431Z,2.63
2018-07-23T16:08:56.428Z,3.07
2018-07-23T16:11:26.792Z,3.07
2018-07-23T16:13:56.179Z,3.73
2018-07-23T16:16:28.084Z,3.20
2018-07-23T16:18:58.135Z,3.40
2018-07-23T16:21:29.212Z,4.20
2018-07-23T16:24:00.378Z,4.07
2018-07-23T16:26:31.572Z,3.73
2018-07-23T16:29:05.128Z,3.33
2018-07-23T16:31:35.873Z,3.83
2018-07-23T16:34:07.313Z,3.80
2018-07-23T16:36:37.860Z,3.10
2018-07-23T16:39:11.132Z,3.40
2018-07-23T16:41:40.582Z,3.70
2018-07-23T16:44:10.272Z,3.27
2018-07-23T16:46:40.635Z,3.67
2018-07-23T16:49:10.143Z,4.00
2018-07-23T16:51:42.500Z,3.83
2018-07-23T16:54:12.499Z,3.53
2018-07-23T16:56:47.689Z,2.87
2018-07-23T16:59:17.803Z,3.53
2018-07-23T17:01:50.109Z,3.07
2018-07-23T17:04:20.066Z,3.87
2018-07-23T17:09:51.726Z,3.43
2018-07-23T17:12:21.880Z,3.57
2018-07-23T17:14:59.113Z,3.83
2018-07-23T17:17:29.758Z,4.40
2018-07-23T17:19:59.520Z,4.37
2018-07-23T17:22:29.073Z,4.40
2018-07-23T17:25:00.249Z,3.77
2018-07-23T17:27:29.909Z,3.53
2018-07-23T17:30:07.110Z,3.70
2018-07-23T17:32:38.153Z,4.33
2018-07-23T17:35:10.514Z,3.67
2018-07-23T17:37:39.966Z,5.10
2018-07-23T17:40:09.693Z,5.17
2018-07-23T17:42:40.101Z,4.17
2018-07-23T17:45:17.420Z,4.10
2018-07-23T17:47:46.918Z,3.73
2018-07-23T17:50:18.310Z,3.17
2018-07-23T17:52:48.939Z,3.50
2018-07-23T17:55:19.613Z,4.30
2018-07-23T17:57:49.713Z,3.57
2018-07-23T18:02:49.820Z,3.47
2018-07-23T18:05:24.090Z,3.93
2018-07-23T18:07:54.787Z,4.07
2018-07-23T18:10:24.560Z,6.43
2018-07-23T18:12:53.679Z,5.90
2018-07-23T18:15:27.228Z,3.73
2018-07-23T18:17:56.609Z,4.00
2018-07-23T18:20:32.778Z,3.43
2018-07-23T18:23:02.485Z,3.70
2018-07-23T18:25:31.720Z,6.47
2018-07-23T18:28:01.115Z,3.60
2018-07-23T18:30:37.651Z,3.60
2018-07-23T18:33:06.647Z,3.67
2018-07-23T18:35:38.139Z,3.20
2018-07-23T18:38:07.444Z,3.93
2018-07-23T18:40:43.094Z,3.30
2018-07-23T18:43:13.215Z,3.07
2018-07-23T18:45:43.707Z,4.00
2018-07-23T18:49:42.749Z,3.90
2018-07-23T18:52:13.069Z,3.80
2018-07-23T18:54:50.871Z,3.70
2018-07-23T18:57:19.827Z,3.17
2018-07-23T18:59:50.274Z,3.70
2018-07-23T19:02:21.293Z,3.63
2018-07-23T19:04:53.336Z,3.83
2018-07-23T19:07:23.051Z,3.80
2018-07-23T19:09:57.015Z,3.53
2018-07-23T19:12:27.979Z,5.53
2018-07-23T19:14:59.065Z,4.63
2018-07-23T19:17:30.556Z,4.57
2018-07-23T19:20:01.723Z,4.10
2018-07-23T19:22:31.436Z,3.50
2018-07-23T19:25:08.407Z,4.10
2018-07-23T19:27:44.613Z,4.00
2018-07-23T19:30:14.151Z,4.30
2018-07-23T19:32:44.609Z,4.73
2018-07-23T19:35:13.607Z,4.80
2018-07-23T19:37:42.804Z,4.67
2018-07-23T19:40:19.989Z,4.10
2018-07-23T19:42:56.102Z,3.73
2018-07-23T19:45:28.228Z,4.53
2018-07-23T19:47:57.406Z,4.20
2018-07-23T19:50:28.787Z,4.87
2018-07-23T19:52:58.424Z,4.27
2018-07-23T19:55:29.364Z,4.47
2018-07-23T19:57:58.518Z,5.10
2018-07-23T20:00:30.903Z,4.90
2018-07-23T20:03:01.683Z,4.37
2018-07-23T20:05:32.925Z,5.90
2018-07-23T20:08:03.386Z,5.07
2018-07-23T20:10:34.189Z,5.13
2018-07-23T20:13:04.474Z,4.43
2018-07-23T20:15:33.845Z,5.13
2018-07-23T20:18:05.405Z,5.03
2018-07-23T20:20:43.471Z,5.30
2018-07-23T20:23:13.487Z,5.07
2018-07-23T20:25:44.421Z,5.37
2018-07-23T20:28:14.830Z,4.33
2018-07-23T20:30:48.398Z,4.93
2018-07-23T20:33:18.716Z,4.17
2018-07-23T20:35:48.571Z,6.07
2018-07-23T20:38:20.399Z,4.03
2018-07-23T20:40:52.711Z,4.63
2018-07-23T20:43:22.469Z,4.50
2018-07-23T20:45:53.410Z,5.67
2018-07-23T20:48:23.510Z,4.90
2018-07-23T20:50:56.932Z,5.20
2018-07-23T20:53:29.121Z,5.40
2018-07-23T20:55:59.174Z,5.07
2018-07-23T20:58:29.318Z,5.93
2018-07-23T21:01:01.378Z,6.00
2018-07-23T21:03:31.502Z,5.57
2018-07-23T21:06:01.205Z,5.13
2018-07-23T21:08:31.956Z,5.40
2018-07-23T21:11:03.571Z,5.20
2018-07-23T21:13:37.469Z,5.17
2018-07-23T21:16:07.815Z,5.23
2018-07-23T21:18:38.028Z,5.60
2018-07-23T21:21:07.692Z,5.10
2018-07-23T21:23:36.997Z,5.53
2018-07-23T21:26:13.671Z,6.03
2018-07-23T21:28:43.703Z,5.33
2018-07-23T21:31:14.297Z,5.60
2018-07-23T21:33:45.053Z,4.73
2018-07-23T21:36:20.522Z,5.37
2018-07-23T21:38:50.178Z,4.97
2018-07-23T21:41:21.121Z,5.43
2018-07-23T21:43:50.740Z,5.43
2018-07-23T21:46:22.848Z,5.33
2018-07-23T21:48:58.250Z,5.90
2018-07-23T21:51:38.635Z,6.67
2018-07-23T21:54:11.271Z,5.60
2018-07-23T21:56:42.363Z,7.53
2018-07-23T22:01:53.072Z,6.00
2018-07-23T22:04:30.881Z,5.20
2018-07-23T22:07:01.262Z,5.67
2018-07-23T22:09:33.598Z,5.47
2018-07-23T22:12:06.225Z,5.40
2018-07-23T22:14:38.615Z,6.00
2018-07-23T22:17:09.494Z,6.17
2018-07-23T22:19:40.648Z,5.87
2018-07-23T22:22:12.643Z,6.73
2018-07-23T22:24:47.717Z,6.47
2018-07-23T22:27:17.176Z,6.30
2018-07-23T22:29:48.596Z,6.20
2018-07-23T22:32:19.713Z,6.20
2018-07-23T22:34:49.602Z,5.93
2018-07-23T22:37:19.195Z,6.33
2018-07-23T22:39:50.098Z,6.33
2018-07-23T22:42:24.166Z,5.80
2018-07-23T22:44:57.159Z,6.23
2018-07-23T22:47:27.157Z,6.00
2018-07-23T22:49:57.765Z,5.97
2018-07-23T22:52:29.093Z,7.00
2018-07-23T22:54:59.656Z,6.53
2018-07-23T22:57:30.190Z,6.60
2018-07-23T23:00:01.505Z,6.47
2018-07-23T23:02:32.100Z,6.30
2018-07-23T23:05:06.677Z,6.27
2018-07-23T23:07:41.246Z,6.80
2018-07-23T23:10:12.212Z,6.80
2018-07-23T23:12:43.045Z,6.50
2018-07-23T23:15:12.773Z,7.63
2018-07-23T23:17:42.799Z,6.27
2018-07-23T23:20:11.768Z,7.00
2018-07-23T23:22:42.203Z,6.47
2018-07-23T23:25:14.643Z,6.70
2018-07-23T23:27:43.887Z,6.20
2018-07-23T23:30:16.857Z,6.17
2018-07-23T23:32:46.245Z,5.73
2018-07-23T23:35:18.293Z,5.93
2018-07-23T23:37:47.925Z,5.63
2018-07-23T23:40:25.506Z,6.63
2018-07-23T23:42:56.254Z,5.73
2018-07-23T23:45:25.959Z,5.87
2018-07-23T23:47:55.366Z,6.30
2018-07-23T23:50:26.364Z,5.70
2018-07-23T23:52:55.922Z,6.60
2018-07-23T23:55:29.002Z,6.53
2018-07-23T23:57:59.228Z,6.37
